Oakfield, Wisconsin
Current Conditions -  °F | °C
As of 8:53 PM on Wednesday 22 Oct 2014 (Local Time) from KFLD Reporting Station
Clear Clear  
Wind Chill: 36°   Ceiling: Unl
Heat Index: 40°   Visibility: 10mi
Dew Point: 36°   Wind: 6mph
Humidity: 86%   Direction: 150°SSE
Pressure: 30.25"   Gusts: NA
Location:  43.69°N, 88.55°W
Report Text: KFLD 230153Z AUTO 15005KT 10SM CLR 04/02 A3025 RMK AO2 SLP252 T00440022
Loading
Personal Weather Stations






























Interactive Weather Map
Tropical Storm Tracking
New forecast layout! Learn more

10-Day Weather Forecast

Advertisements
Track Severe Weather on mobile